Time;durP1;ratioP1;P1;durP2;ratioP2;P2;SDS_P1;SDS_P2;PMS_P1;PMS_P2;Temp;Humidity;BMP_temperature;BMP_pressure;BME280_temperature;BME280_humidity;BME280_pressure;Samples;Min_cycle;Max_cycle;Signal;HPM_P1;HPM_P2
2023/01/26 00:00:25;;;;;;;4.87;4.57;;;0.90;97.30;;;;;;5059550;28;20214;-84
2023/01/26 00:02:50;;;;;;;18.67;6.03;;;0.90;97.30;;;;;;5078390;28;20667;-84
2023/01/26 00:05:15;;;;;;;3.67;3.47;;;0.90;97.30;;;;;;5079088;28;20180;-85
2023/01/26 00:07:44;;;;;;;10.60;3.83;;;0.90;97.30;;;;;;5060191;28;20247;-86
2023/01/26 00:10:10;;;;;;;7.57;3.97;;;0.90;97.30;;;;;;5078537;28;20190;-84
2023/01/26 00:12:36;;;;;;;11.80;6.90;;;0.90;97.30;;;;;;5060327;28;20421;-85
2023/01/26 00:15:01;;;;;;;12.50;7.40;;;0.90;97.30;;;;;;5053947;28;20427;-88
2023/01/26 00:17:27;;;;;;;3.57;2.43;;;1.00;97.30;;;;;;5056447;28;20183;-84
2023/01/26 00:19:56;;;;;;;8.60;4.20;;;1.00;97.30;;;;;;5059167;28;20768;-86
2023/01/26 00:22:25;;;;;;;11.30;5.00;;;1.00;97.30;;;;;;5060271;28;20178;-85
2023/01/26 00:24:50;;;;;;;5.80;4.43;;;1.00;97.30;;;;;;5060108;28;20420;-84
2023/01/26 00:27:16;;;;;;;2.90;2.70;;;1.00;97.30;;;;;;5059635;28;20433;-85
2023/01/26 00:29:42;;;;;;;7.10;4.50;;;1.00;97.30;;;;;;5077467;28;20290;-85
2023/01/26 00:32:08;;;;;;;3.53;3.33;;;1.00;97.30;;;;;;5079595;28;20236;-85
2023/01/26 00:34:33;;;;;;;6.33;5.90;;;1.00;97.30;;;;;;5060417;28;20887;-83
2023/01/26 00:36:59;;;;;;;3.47;3.17;;;1.00;97.30;;;;;;5060175;28;20179;-85
2023/01/26 00:39:24;;;;;;;23.47;4.73;;;1.00;97.30;;;;;;5078140;28;20419;-80
2023/01/26 00:42:05;;;;;;;8.67;5.60;;;1.00;97.30;;;;;;5078046;28;20199;-84
2023/01/26 00:44:31;;;;;;;7.53;4.87;;;1.00;97.30;;;;;;5079889;28;20202;-83
2023/01/26 00:46:56;;;;;;;5.80;3.57;;;1.00;97.30;;;;;;5062421;28;20444;-82
2023/01/26 00:49:22;;;;;;;11.43;5.13;;;1.00;97.30;;;;;;5079862;28;20209;-85
2023/01/26 00:51:47;;;;;;;7.70;4.73;;;1.00;97.30;;;;;;5063034;28;20189;-88
2023/01/26 00:54:13;;;;;;;3.50;3.30;;;1.00;97.30;;;;;;5072779;28;20184;-87
2023/01/26 00:56:38;;;;;;;4.87;4.57;;;1.00;97.30;;;;;;5088753;28;20186;-87
2023/01/26 00:59:05;;;;;;;10.13;7.03;;;0.90;97.30;;;;;;5062468;28;20550;-84
2023/01/26 01:01:30;;;;;;;8.57;5.73;;;0.90;97.30;;;;;;5058003;28;20255;-85
2023/01/26 01:03:56;;;;;;;3.43;3.23;;;0.90;97.30;;;;;;5075855;28;20928;-85
2023/01/26 01:06:21;;;;;;;4.30;3.73;;;0.90;97.30;;;;;;5075776;28;20197;-85
2023/01/26 01:08:47;;;;;;;7.23;4.07;;;0.90;97.30;;;;;;5075475;28;20179;-84
2023/01/26 01:11:12;;;;;;;5.87;5.43;;;0.80;97.30;;;;;;5057595;28;20201;-83
2023/01/26 01:13:39;;;;;;;21.27;4.73;;;0.80;97.30;;;;;;5057725;28;20176;-83
2023/01/26 01:16:10;;;;;;;6.00;4.87;;;0.90;97.30;;;;;;5048399;28;20677;-85
2023/01/26 01:18:35;;;;;;;17.43;6.40;;;0.80;97.30;;;;;;5054907;28;20944;-85
2023/01/26 01:21:06;;;;;;;10.13;6.13;;;0.80;97.30;;;;;;5036857;28;20586;-85
2023/01/26 01:23:31;;;;;;;7.27;3.97;;;0.70;97.30;;;;;;5055921;28;20178;-85
2023/01/26 01:25:58;;;;;;;8.00;4.97;;;0.70;97.30;;;;;;5037665;28;20421;-85
2023/01/26 01:28:24;;;;;;;11.77;6.90;;;0.60;97.30;;;;;;5053393;28;20179;-81
2023/01/26 01:30:50;;;;;;;12.17;4.93;;;0.60;97.30;;;;;;5056686;28;20449;-84
2023/01/26 01:33:15;;;;;;;6.23;5.90;;;0.60;97.30;;;;;;5037244;28;20243;-85
2023/01/26 01:35:41;;;;;;;4.43;4.00;;;0.60;97.30;;;;;;5043120;28;20171;-84
2023/01/26 01:38:06;;;;;;;3.00;1.57;;;0.60;97.30;;;;;;5073131;28;20171;-85
2023/01/26 01:40:32;;;;;;;3.07;2.93;;;0.60;97.30;;;;;;5073756;28;20253;-85
2023/01/26 01:42:57;;;;;;;7.63;5.77;;;0.60;97.30;;;;;;5073550;28;20210;-88
2023/01/26 01:45:26;;;;;;;6.60;4.33;;;0.60;97.30;;;;;;5074783;28;20178;-83
2023/01/26 01:47:57;;;;;;;13.23;4.23;;;0.60;97.30;;;;;;5056542;28;20553;-87
2023/01/26 01:50:24;;;;;;;10.50;5.37;;;0.60;97.30;;;;;;5074858;28;20441;-85
2023/01/26 01:52:52;;;;;;;3.40;3.20;;;0.60;97.30;;;;;;5056063;28;20463;-85
2023/01/26 01:55:18;;;;;;;2.60;2.40;;;0.60;97.30;;;;;;5056728;28;20428;-85
2023/01/26 01:57:54;;;;;;;5.60;2.10;;;0.60;97.30;;;;;;5072439;28;21111;-83
2023/01/26 02:00:22;;;;;;;6.30;4.03;;;0.60;97.30;;;;;;5074267;28;20475;-85
2023/01/26 02:03:10;;;;;;;10.77;5.00;;;0.60;97.30;;;;;;5056191;28;20420;-84
2023/01/26 02:05:53;;;;;;;7.80;5.60;;;0.60;97.30;;;;;;5056303;28;20402;-86
2023/01/26 02:08:21;;;;;;;5.70;5.10;;;0.60;97.30;;;;;;5055996;28;20491;-86
2023/01/26 02:10:49;;;;;;;10.73;3.77;;;0.60;97.30;;;;;;5056338;28;20448;-86
2023/01/26 02:13:17;;;;;;;5.07;3.60;;;0.50;97.30;;;;;;5073416;28;20418;-84
2023/01/26 02:15:43;;;;;;;5.43;2.80;;;0.50;97.30;;;;;;5055260;28;20420;-85
2023/01/26 02:18:10;;;;;;;4.97;3.63;;;0.50;97.30;;;;;;5055621;28;20413;-84
2023/01/26 02:20:46;;;;;;;5.40;2.23;;;0.50;97.30;;;;;;5055996;28;20735;-86
2023/01/26 02:23:44;;;;;;;6.07;4.57;;;0.50;97.30;;;;;;5056441;28;20416;-84
2023/01/26 02:26:12;;;;;;;6.27;4.90;;;0.50;97.30;;;;;;5056117;28;20474;-86
2023/01/26 02:28:39;;;;;;;5.03;3.77;;;0.50;97.30;;;;;;5055971;28;20422;-83
2023/01/26 02:31:05;;;;;;;15.23;5.53;;;0.50;97.30;;;;;;5056440;28;20468;-84
2023/01/26 02:33:32;;;;;;;12.10;4.90;;;0.50;97.30;;;;;;5056131;28;20427;-85
2023/01/26 02:35:59;;;;;;;7.60;3.77;;;0.40;97.30;;;;;;5040507;28;20468;-85
2023/01/26 02:38:31;;;;;;;4.40;3.30;;;0.40;97.30;;;;;;5035741;28;20407;-81
2023/01/26 02:41:03;;;;;;;6.30;5.27;;;0.40;97.30;;;;;;5053862;28;20485;-88
2023/01/26 02:43:29;;;;;;;12.57;6.90;;;0.30;97.30;;;;;;5035914;28;20415;-82
2023/01/26 02:45:54;;;;;;;2.63;2.43;;;0.30;97.30;;;;;;5036500;28;20525;-81
2023/01/26 02:51:05;;;;;;;4.57;4.27;;;0.30;97.30;;;;;;5054095;28;20629;-85
2023/01/26 02:53:31;;;;;;;5.40;5.10;;;0.30;97.30;;;;;;5036152;28;20430;-84
2023/01/26 02:55:56;;;;;;;5.67;5.30;;;0.20;97.30;;;;;;5041853;28;20983;-82
2023/01/26 02:58:22;;;;;;;9.03;3.83;;;0.30;97.30;;;;;;5036333;28;20221;-84
2023/01/26 03:00:47;;;;;;;4.27;4.00;;;0.20;97.30;;;;;;5054245;28;20211;-85
2023/01/26 03:03:17;;;;;;;15.03;6.37;;;0.20;97.30;;;;;;5036347;28;20183;-85
2023/01/26 03:05:42;;;;;;;28.77;5.57;;;0.30;97.30;;;;;;5036588;28;20187;-83
2023/01/26 03:08:08;;;;;;;7.60;4.97;;;0.30;97.30;;;;;;5036562;28;20419;-84
2023/01/26 03:10:33;;;;;;;5.40;3.37;;;0.30;97.30;;;;;;5053643;28;20203;-86
2023/01/26 03:12:59;;;;;;;5.40;5.10;;;0.30;97.30;;;;;;5054665;28;20183;-84
2023/01/26 03:15:51;;;;;;;7.03;2.70;;;0.30;97.30;;;;;;5053742;28;20263;-84
2023/01/26 03:29:18;;;;;;;5.60;5.30;;;0.00;97.30;;;;;;5102738;28;20438;-89
2023/01/26 03:31:44;;;;;;;2.23;2.03;;;0.00;97.30;;;;;;5076677;28;20426;-89
2023/01/26 03:34:10;;;;;;;3.23;3.00;;;0.00;97.30;;;;;;5076732;28;20416;-89
2023/01/26 03:36:36;;;;;;;6.87;5.07;;;0.00;97.30;;;;;;5076998;28;20182;-89
2023/01/26 03:39:03;;;;;;;3.70;3.20;;;-0.10;97.30;;;;;;5076409;28;20202;-89
2023/01/26 03:57:52;;;;;;;7.10;2.50;;;-0.20;97.30;;;;;;5105929;28;20424;-90
2023/01/26 04:00:18;;;;;;;3.70;2.27;;;-0.20;97.30;;;;;;5086448;28;20985;-90
2023/01/26 04:08:25;;;;;;;1.63;1.53;;;-0.30;97.30;;;;;;5108032;28;20490;-90
2023/01/26 04:10:53;;;;;;;2.63;2.43;;;-0.30;97.30;;;;;;5095776;28;20987;-90
2023/01/26 04:21:34;;;;;;;3.30;2.73;;;-0.40;97.30;;;;;;5101664;28;20875;-90
2023/01/26 04:24:08;;;;;;;2.57;2.37;;;-0.40;97.30;;;;;;5087385;28;20417;-90
2023/01/26 04:26:34;;;;;;;1.47;1.37;;;-0.40;97.30;;;;;;5111248;28;20388;-90
2023/01/26 04:29:04;;;;;;;2.70;2.50;;;-0.40;97.30;;;;;;5084885;28;20448;-91
2023/01/26 04:31:30;;;;;;;2.90;2.70;;;-0.40;97.30;;;;;;5112793;28;20461;-90
2023/01/26 04:33:57;;;;;;;2.80;2.60;;;-0.40;97.30;;;;;;5081073;28;20442;-90
2023/01/26 04:36:22;;;;;;;1.70;1.60;;;-0.40;97.30;;;;;;5075048;28;20409;-90
2023/01/26 04:38:48;;;;;;;2.90;2.70;;;-0.40;97.30;;;;;;5091077;28;20422;-89
2023/01/26 04:41:14;;;;;;;5.30;3.90;;;-0.40;97.30;;;;;;5083803;28;20675;-88
2023/01/26 04:43:39;;;;;;;3.03;1.93;;;-0.40;97.30;;;;;;5075246;28;20175;-89
2023/01/26 04:46:06;;;;;;;1.90;1.80;;;-0.40;97.30;;;;;;5086151;28;20167;-89
2023/01/26 04:48:33;;;;;;;4.00;3.13;;;-0.40;97.30;;;;;;5096271;28;20234;-90
2023/01/26 04:51:01;;;;;;;2.43;2.23;;;-0.40;97.30;;;;;;5089465;28;20431;-90
2023/01/26 04:53:26;;;;;;;2.57;2.37;;;-0.40;97.30;;;;;;5087394;28;20499;-90
2023/01/26 04:55:52;;;;;;;2.67;2.47;;;-0.40;97.30;;;;;;5092780;28;20504;-90
2023/01/26 04:58:18;;;;;;;1.60;1.50;;;-0.30;97.30;;;;;;5080876;28;20178;-89
2023/01/26 05:00:43;;;;;;;2.17;1.70;;;-0.40;97.30;;;;;;5077054;28;20247;-89
2023/01/26 05:03:09;;;;;;;6.50;2.93;;;-0.40;97.30;;;;;;5096145;28;20173;-90
2023/01/26 05:05:38;;;;;;;3.37;3.13;;;-0.40;97.30;;;;;;5108154;28;20162;-90
2023/01/26 05:08:05;;;;;;;5.60;2.53;;;-0.30;97.30;;;;;;5095271;28;20166;-90
2023/01/26 05:10:30;;;;;;;1.40;1.30;;;-0.40;97.30;;;;;;5098200;28;20420;-90
2023/01/26 05:12:56;;;;;;;2.63;1.93;;;-0.40;97.30;;;;;;5090341;28;20465;-90
2023/01/26 05:15:21;;;;;;;5.23;2.80;;;-0.40;97.30;;;;;;5087605;28;20170;-90
2023/01/26 05:17:47;;;;;;;3.97;3.20;;;-0.30;97.30;;;;;;5078293;28;20554;-90
2023/01/26 05:20:12;;;;;;;1.40;1.30;;;-0.40;97.30;;;;;;5092097;28;20717;-90
2023/01/26 05:22:38;;;;;;;2.50;1.70;;;-0.40;97.30;;;;;;5113069;28;20295;-90
2023/01/26 05:25:05;;;;;;;3.27;3.07;;;-0.40;97.30;;;;;;5094414;28;20166;-90
2023/01/26 05:27:30;;;;;;;2.67;2.43;;;-0.40;97.30;;;;;;5094891;28;20169;-90
2023/01/26 05:29:59;;;;;;;5.40;2.50;;;-0.40;97.30;;;;;;5095107;28;20412;-90
2023/01/26 05:32:27;;;;;;;10.27;3.87;;;-0.40;97.30;;;;;;5101773;28;20245;-90
2023/01/26 05:34:52;;;;;;;9.20;2.97;;;-0.30;97.30;;;;;;5083504;28;20439;-89
2023/01/26 05:37:18;;;;;;;2.50;2.30;;;-0.30;97.30;;;;;;5095066;28;20960;-90
2023/01/26 05:39:44;;;;;;;2.20;2.07;;;-0.30;97.30;;;;;;5094395;28;20296;-90
2023/01/26 05:42:12;;;;;;;3.70;3.50;;;-0.30;97.30;;;;;;5094863;28;20260;-90
2023/01/26 05:44:38;;;;;;;7.40;2.50;;;-0.40;97.30;;;;;;5094565;28;20583;-90
2023/01/26 05:47:04;;;;;;;6.20;3.63;;;-0.30;97.30;;;;;;5094393;28;20430;-90
2023/01/26 05:49:30;;;;;;;1.60;1.50;;;-0.30;97.30;;;;;;5102117;28;20677;-90
2023/01/26 05:51:55;;;;;;;2.53;2.33;;;-0.30;97.30;;;;;;5092726;28;20198;-91
2023/01/26 05:54:21;;;;;;;4.40;1.87;;;-0.30;97.30;;;;;;5074164;28;20177;-90
2023/01/26 05:56:46;;;;;;;1.80;1.70;;;-0.30;97.30;;;;;;5074271;28;20185;-89
2023/01/26 05:59:12;;;;;;;2.53;2.33;;;-0.40;97.30;;;;;;5074097;28;20205;-90
2023/01/26 06:01:47;;;;;;;2.23;2.03;;;-0.30;97.30;;;;;;5090403;28;20280;-90
2023/01/26 06:04:12;;;;;;;13.10;6.13;;;-0.30;97.30;;;;;;5094261;28;20524;-89
2023/01/26 06:06:38;;;;;;;2.90;2.20;;;-0.30;97.30;;;;;;5093959;28;20485;-90
2023/01/26 06:09:03;;;;;;;5.20;2.50;;;-0.30;97.30;;;;;;5095056;28;20269;-89
2023/01/26 06:11:31;;;;;;;7.63;4.57;;;-0.30;97.30;;;;;;5093948;28;20204;-89
2023/01/26 06:13:57;;;;;;;1.50;1.40;;;-0.30;97.30;;;;;;5094237;28;20224;-89
2023/01/26 06:16:22;;;;;;;6.90;6.50;;;-0.30;97.30;;;;;;5093860;28;20439;-89
2023/01/26 06:18:48;;;;;;;4.00;3.30;;;-0.30;97.30;;;;;;5091114;28;20185;-90
2023/01/26 06:21:14;;;;;;;3.53;3.17;;;-0.30;97.30;;;;;;5090140;28;20218;-90
2023/01/26 06:23:40;;;;;;;3.90;2.43;;;-0.30;97.30;;;;;;5090232;28;20490;-90
2023/01/26 06:26:06;;;;;;;3.73;3.53;;;-0.30;97.30;;;;;;5090327;28;20522;-90
2023/01/26 06:28:31;;;;;;;3.87;3.67;;;-0.30;97.30;;;;;;5109971;28;20177;-90
2023/01/26 06:31:05;;;;;;;2.73;2.53;;;-0.30;97.30;;;;;;5092356;28;20451;-90
2023/01/26 06:33:35;;;;;;;4.17;3.83;;;-0.30;97.30;;;;;;5110736;28;20186;-90
2023/01/26 06:36:05;;;;;;;1.73;1.63;;;-0.30;97.30;;;;;;5092276;28;20424;-90
2023/01/26 06:38:31;;;;;;;6.80;4.10;;;-0.30;97.30;;;;;;5092769;28;20480;-90
2023/01/26 06:41:01;;;;;;;2.80;2.60;;;-0.30;97.30;;;;;;5092406;28;20502;-90
2023/01/26 06:43:29;;;;;;;2.57;2.37;;;-0.30;97.30;;;;;;5091754;28;20428;-89
2023/01/26 06:45:58;;;;;;;8.73;6.03;;;-0.30;97.30;;;;;;5092110;28;20411;-90
2023/01/26 06:48:28;;;;;;;10.80;8.63;;;-0.20;97.30;;;;;;5093279;28;20788;-90
2023/01/26 06:51:18;;;;;;;5.00;4.70;;;-0.20;97.30;;;;;;5111986;28;20446;-90
2023/01/26 06:53:55;;;;;;;5.03;4.70;;;-0.20;97.30;;;;;;5098725;28;20458;-90
2023/01/26 06:56:22;;;;;;;5.37;4.37;;;-0.20;97.30;;;;;;5097359;28;20518;-90
2023/01/26 06:58:47;;;;;;;3.07;2.87;;;-0.20;97.30;;;;;;5097460;28;20418;-90
2023/01/26 07:01:21;;;;;;;1.87;1.77;;;-0.20;97.30;;;;;;5116254;28;20490;-90
2023/01/26 07:03:48;;;;;;;2.67;2.47;;;-0.20;97.30;;;;;;5114893;28;20177;-91
2023/01/26 07:06:13;;;;;;;2.87;2.10;;;-0.20;97.30;;;;;;5138420;28;20396;-90
2023/01/26 07:08:39;;;;;;;6.10;2.37;;;-0.20;97.30;;;;;;5120604;28;20427;-90
2023/01/26 07:11:06;;;;;;;4.40;2.60;;;-0.20;97.30;;;;;;5120007;28;20181;-90
2023/01/26 07:13:31;;;;;;;1.97;1.83;;;-0.20;97.30;;;;;;5137543;28;20186;-90
2023/01/26 07:16:02;;;;;;;2.80;1.20;;;-0.20;97.30;;;;;;5119433;28;20414;-90
2023/01/26 07:18:27;;;;;;;3.00;2.80;;;-0.20;97.30;;;;;;5119142;28;20205;-91
2023/01/26 07:20:53;;;;;;;2.70;2.50;;;-0.20;97.30;;;;;;5119570;28;20478;-89
2023/01/26 07:23:18;;;;;;;2.13;1.60;;;-0.20;97.30;;;;;;5119528;28;20193;-91
2023/01/26 07:25:44;;;;;;;2.33;2.13;;;-0.10;97.30;;;;;;5117993;28;20178;-91
2023/01/26 07:28:09;;;;;;;2.80;2.60;;;-0.20;97.30;;;;;;5106230;28;20272;-90
2023/01/26 07:30:36;;;;;;;4.33;3.40;;;-0.10;97.30;;;;;;5097394;28;20257;-90
2023/01/26 07:33:01;;;;;;;3.27;3.07;;;-0.10;97.30;;;;;;5096938;28;20174;-89
2023/01/26 07:35:28;;;;;;;2.83;2.63;;;-0.10;97.30;;;;;;5085120;28;20419;-89
2023/01/26 07:37:54;;;;;;;6.20;2.70;;;-0.10;97.30;;;;;;5076740;28;20187;-90
2023/01/26 07:40:19;;;;;;;2.67;2.47;;;-0.10;97.30;;;;;;5076129;28;20489;-89
2023/01/26 07:42:45;;;;;;;6.17;3.77;;;-0.10;97.30;;;;;;5076573;28;20186;-89
2023/01/26 07:45:11;;;;;;;5.17;2.70;;;-0.10;97.30;;;;;;5076623;28;20174;-90
2023/01/26 07:47:37;;;;;;;2.20;2.03;;;-0.10;97.30;;;;;;5076456;28;20918;-90
2023/01/26 07:50:02;;;;;;;5.90;2.53;;;-0.10;97.30;;;;;;5094464;28;20197;-90
2023/01/26 07:52:28;;;;;;;2.57;1.97;;;-0.10;97.30;;;;;;5076358;28;20201;-89
2023/01/26 07:54:53;;;;;;;10.87;2.73;;;-0.20;97.30;;;;;;5076200;28;20190;-90
2023/01/26 07:57:19;;;;;;;2.17;2.00;;;-0.30;97.30;;;;;;5090721;28;20234;-90
2023/01/26 07:59:44;;;;;;;3.43;1.93;;;-0.30;97.30;;;;;;5095620;28;20197;-89
2023/01/26 08:02:10;;;;;;;2.80;1.73;;;-0.30;97.30;;;;;;5095328;28;20185;-90
2023/01/26 08:04:35;;;;;;;1.43;1.33;;;-0.30;97.30;;;;;;5096581;28;20197;-89
2023/01/26 08:07:01;;;;;;;1.63;1.53;;;-0.30;97.30;;;;;;5115654;28;20258;-90
2023/01/26 08:09:26;;;;;;;3.03;2.90;;;-0.30;97.30;;;;;;5097206;28;20182;-89
2023/01/26 08:11:54;;;;;;;2.90;2.50;;;-0.30;97.30;;;;;;5098814;28;20194;-90
2023/01/26 08:14:20;;;;;;;3.33;2.80;;;-0.30;97.30;;;;;;5114016;28;20168;-90
2023/01/26 08:16:45;;;;;;;7.60;2.93;;;-0.40;97.30;;;;;;5098888;28;20494;-89
2023/01/26 08:19:11;;;;;;;2.50;2.30;;;-0.40;97.30;;;;;;5096357;28;20206;-90
2023/01/26 08:21:36;;;;;;;5.40;3.17;;;-0.40;97.30;;;;;;5095817;28;20643;-90
2023/01/26 08:24:02;;;;;;;2.13;1.97;;;-0.40;97.30;;;;;;5096130;28;20189;-90
2023/01/26 08:26:28;;;;;;;3.73;1.50;;;-0.40;97.30;;;;;;5113709;28;20177;-89
2023/01/26 08:28:54;;;;;;;2.77;2.40;;;-0.40;97.30;;;;;;5095966;28;20551;-90
2023/01/26 08:31:20;;;;;;;8.33;2.90;;;-0.40;97.30;;;;;;5095275;28;20427;-90
2023/01/26 08:33:49;;;;;;;1.73;1.63;;;-0.50;97.30;;;;;;5095921;28;20196;-90
2023/01/26 08:36:16;;;;;;;1.23;1.13;;;-0.50;97.30;;;;;;5095205;28;20416;-89
2023/01/26 08:38:42;;;;;;;1.30;1.20;;;-0.50;97.30;;;;;;5095510;28;20412;-89
2023/01/26 08:41:08;;;;;;;6.50;4.67;;;-0.40;97.30;;;;;;5095603;28;20435;-89
2023/01/26 08:43:34;;;;;;;4.93;3.87;;;-0.40;97.30;;;;;;5113682;28;20412;-90
2023/01/26 08:46:00;;;;;;;1.73;1.63;;;-0.30;97.30;;;;;;5095185;28;20414;-89
2023/01/26 08:48:27;;;;;;;1.87;1.77;;;-0.30;97.30;;;;;;5095701;28;20426;-89
2023/01/26 08:50:53;;;;;;;3.10;2.90;;;-0.30;97.30;;;;;;5095092;28;20432;-90
2023/01/26 08:53:19;;;;;;;2.80;2.60;;;-0.40;97.30;;;;;;5094951;28;20423;-89
2023/01/26 08:55:44;;;;;;;3.27;1.40;;;-0.40;97.30;;;;;;5095304;28;20422;-89
2023/01/26 08:58:10;;;;;;;2.30;1.60;;;-0.40;97.30;;;;;;5095101;28;20182;-89
2023/01/26 09:00:36;;;;;;;8.80;4.23;;;-0.40;97.30;;;;;;5113232;28;20213;-89
2023/01/26 09:03:03;;;;;;;3.67;3.47;;;-0.40;97.30;;;;;;5094925;28;20177;-89
2023/01/26 09:05:33;;;;;;;3.40;3.20;;;-0.40;97.30;;;;;;5095163;28;20549;-89
2023/01/26 09:07:58;;;;;;;2.43;2.23;;;-0.50;97.30;;;;;;5094564;28;20430;-90
2023/01/26 09:10:24;;;;;;;3.73;3.47;;;-0.50;97.30;;;;;;5095345;28;20917;-89
2023/01/26 09:12:50;;;;;;;1.63;1.53;;;-0.40;97.30;;;;;;5095005;28;20176;-90
2023/01/26 09:15:15;;;;;;;6.40;3.27;;;-0.50;97.30;;;;;;5094403;28;20424;-89
2023/01/26 09:17:42;;;;;;;3.03;2.33;;;-0.50;97.30;;;;;;5094932;28;20192;-89
2023/01/26 09:20:09;;;;;;;2.70;2.50;;;-0.50;97.30;;;;;;5094399;28;20276;-90
2023/01/26 09:22:34;;;;;;;1.37;1.30;;;-0.60;97.30;;;;;;5085844;22;20490;-86
2023/01/26 09:25:00;;;;;;;8.43;3.80;;;-0.60;97.30;;;;;;5050671;28;20832;-85
2023/01/26 09:27:25;;;;;;;2.30;2.10;;;-0.60;97.30;;;;;;5051021;28;20180;-88
2023/01/26 09:29:52;;;;;;;2.87;2.67;;;-0.60;97.30;;;;;;5051331;28;20179;-87
2023/01/26 09:32:18;;;;;;;2.87;1.93;;;-0.60;97.30;;;;;;5051005;28;20650;-85
2023/01/26 09:34:43;;;;;;;4.77;2.83;;;-0.60;97.30;;;;;;5051572;28;20497;-87
2023/01/26 09:37:09;;;;;;;5.30;2.70;;;-0.60;97.30;;;;;;5051338;28;20207;-85
2023/01/26 09:39:34;;;;;;;2.60;2.40;;;-0.60;97.30;;;;;;5052699;28;20674;-86
2023/01/26 09:42:17;;;;;;;6.50;2.50;;;-0.60;97.30;;;;;;5052253;28;20238;-86
2023/01/26 09:44:53;;;;;;;1.80;1.70;;;-0.60;97.30;;;;;;5050940;28;20532;-85
2023/01/26 09:47:28;;;;;;;1.73;1.63;;;-0.60;97.30;;;;;;5052656;28;20417;-85
2023/01/26 09:50:02;;;;;;;2.80;2.50;;;-0.60;97.30;;;;;;5051085;28;20434;-86
2023/01/26 09:53:11;;;;;;;3.43;1.93;;;-0.50;97.30;;;;;;5050959;28;20530;-87
2023/01/26 09:55:39;;;;;;;1.57;1.47;;;-0.50;97.30;;;;;;5031912;28;20434;-87
2023/01/26 09:58:32;;;;;;;3.87;1.93;;;-0.50;97.30;;;;;;5051446;28;20427;-85
2023/01/26 10:01:01;;;;;;;6.67;3.17;;;-0.50;97.30;;;;;;5051228;28;20991;-86
2023/01/26 10:03:49;;;;;;;2.17;2.00;;;-0.50;97.30;;;;;;5051539;28;20422;-85
2023/01/26 10:06:26;;;;;;;2.33;2.13;;;-0.50;97.30;;;;;;5051195;28;20422;-85
2023/01/26 10:08:56;;;;;;;1.63;1.57;;;-0.50;97.30;;;;;;5051509;28;20485;-85
2023/01/26 10:11:41;;;;;;;1.60;1.50;;;-0.50;97.30;;;;;;5051117;28;20434;-85
2023/01/26 10:14:30;;;;;;;2.77;2.60;;;-0.50;97.30;;;;;;5050699;28;20410;-86
2023/01/26 10:17:00;;;;;;;3.70;2.60;;;-0.50;97.30;;;;;;5050101;28;20934;-85
2023/01/26 10:19:28;;;;;;;4.87;2.73;;;-0.50;97.30;;;;;;5050839;28;20462;-87
2023/01/26 10:22:05;;;;;;;2.87;2.60;;;-0.50;97.30;;;;;;5062079;28;20468;-86
2023/01/26 10:24:32;;;;;;;4.77;1.77;;;-0.50;97.30;;;;;;5074229;28;20922;-85
2023/01/26 10:26:58;;;;;;;4.80;1.93;;;-0.40;97.30;;;;;;5075485;28;20421;-87
2023/01/26 10:29:24;;;;;;;4.00;2.73;;;-0.40;97.30;;;;;;5078110;28;20419;-85
2023/01/26 10:31:50;;;;;;;1.00;0.90;;;-0.30;97.30;;;;;;5078239;28;20449;-86
2023/01/26 10:34:21;;;;;;;2.67;2.53;;;-0.30;97.30;;;;;;5077673;28;20185;-85
2023/01/26 10:36:46;;;;;;;3.13;1.80;;;-0.30;97.30;;;;;;5077944;28;20182;-85
2023/01/26 10:39:14;;;;;;;1.93;1.83;;;-0.30;97.30;;;;;;5078175;28;20523;-86
2023/01/26 10:41:56;;;;;;;4.50;3.37;;;-0.20;97.30;;;;;;5095007;28;20492;-87
2023/01/26 10:44:37;;;;;;;2.90;2.70;;;-0.20;97.30;;;;;;5096309;28;20453;-85
2023/01/26 10:47:17;;;;;;;3.47;3.13;;;-0.20;97.30;;;;;;5096062;28;20405;-85
2023/01/26 10:49:43;;;;;;;10.23;4.27;;;-0.20;97.30;;;;;;5077927;28;20483;-85
2023/01/26 10:52:24;;;;;;;1.57;1.47;;;-0.20;97.30;;;;;;5096411;28;20432;-85
2023/01/26 10:55:08;;;;;;;1.37;1.27;;;-0.20;97.30;;;;;;5078413;28;20209;-86
2023/01/26 10:57:37;;;;;;;1.50;1.40;;;-0.20;97.30;;;;;;5077941;28;20610;-85
2023/01/26 11:00:06;;;;;;;1.73;1.60;;;-0.20;97.30;;;;;;5077399;28;20467;-85
2023/01/26 11:02:34;;;;;;;1.50;1.40;;;-0.30;97.30;;;;;;5077448;28;20527;-86
2023/01/26 11:05:06;;;;;;;3.90;2.37;;;-0.30;97.30;;;;;;5095535;28;20413;-86
2023/01/26 11:07:37;;;;;;;3.30;3.10;;;-0.30;97.30;;;;;;5077539;28;20452;-86
2023/01/26 11:10:25;;;;;;;3.53;2.50;;;-0.30;97.30;;;;;;5095610;28;20417;-86
2023/01/26 11:13:04;;;;;;;2.90;2.70;;;-0.20;97.30;;;;;;5077345;28;20814;-85
2023/01/26 11:15:35;;;;;;;2.47;2.30;;;-0.20;97.30;;;;;;5078050;28;20444;-85
2023/01/26 11:18:30;;;;;;;2.30;2.13;;;-0.20;97.30;;;;;;5077217;28;20715;-86
2023/01/26 11:21:08;;;;;;;4.93;3.00;;;-0.20;97.30;;;;;;5059425;28;20809;-85
2023/01/26 11:24:29;;;;;;;3.37;3.17;;;-0.30;97.30;;;;;;5077137;28;20511;-86
2023/01/26 11:27:37;;;;;;;1.20;1.10;;;-0.30;97.30;;;;;;4977179;28;20504;-85
2023/01/26 11:30:18;;;;;;;2.60;2.00;;;-0.30;97.30;;;;;;4976431;28;20421;-85
2023/01/26 11:32:55;;;;;;;3.97;3.73;;;-0.20;97.30;;;;;;5062428;28;20432;-88
2023/01/26 11:35:49;;;;;;;2.63;2.47;;;-0.30;97.30;;;;;;5077032;28;20420;-85
2023/01/26 11:38:33;;;;;;;3.83;2.30;;;-0.30;97.30;;;;;;5076428;28;20449;-86
2023/01/26 11:41:11;;;;;;;6.60;3.50;;;-0.30;97.30;;;;;;5077015;28;20517;-87
2023/01/26 11:44:10;;;;;;;2.37;2.17;;;-0.30;97.30;;;;;;5076989;28;20452;-88
2023/01/26 11:46:57;;;;;;;2.33;2.13;;;-0.20;97.30;;;;;;5077241;28;20514;-85
2023/01/26 11:49:28;;;;;;;3.60;3.40;;;-0.20;97.30;;;;;;5089155;28;20417;-86
2023/01/26 11:52:08;;;;;;;3.63;3.43;;;-0.20;97.30;;;;;;5092743;28;20442;-85
2023/01/26 11:54:59;;;;;;;5.60;3.77;;;-0.20;97.30;;;;;;5084329;28;20476;-85
2023/01/26 11:57:50;;;;;;;3.70;3.50;;;-0.20;97.30;;;;;;5076303;28;20420;-85
2023/01/26 12:00:39;;;;;;;13.70;3.60;;;-0.30;97.30;;;;;;5076320;28;20560;-85
2023/01/26 12:03:11;;;;;;;9.40;3.27;;;-0.30;97.30;;;;;;5059166;28;20475;-87
2023/01/26 12:05:43;;;;;;;3.67;3.47;;;-0.20;97.30;;;;;;5075607;28;20429;-85
2023/01/26 12:08:37;;;;;;;3.83;3.60;;;-0.30;97.30;;;;;;5076074;28;20970;-85
2023/01/26 12:11:22;;;;;;;8.43;4.00;;;-0.30;97.30;;;;;;5075822;28;20873;-85
2023/01/26 12:14:14;;;;;;;4.03;2.73;;;-0.30;97.30;;;;;;5076492;28;20424;-85
2023/01/26 12:17:01;;;;;;;4.13;3.70;;;-0.30;97.30;;;;;;5076698;28;20393;-86
2023/01/26 12:19:47;;;;;;;9.90;5.67;;;-0.30;97.30;;;;;;5076028;28;20605;-88
2023/01/26 12:22:20;;;;;;;3.33;1.63;;;-0.40;97.30;;;;;;5076120;28;20472;-86
2023/01/26 12:24:54;;;;;;;3.30;3.10;;;-0.40;97.30;;;;;;5076254;28;20426;-86
2023/01/26 12:27:28;;;;;;;2.27;2.07;;;-0.40;97.30;;;;;;5076642;28;20456;-85
2023/01/26 12:30:10;;;;;;;8.10;5.70;;;-0.40;97.30;;;;;;5076605;28;20420;-85
2023/01/26 12:32:36;;;;;;;7.67;5.20;;;-0.40;97.30;;;;;;5076436;28;20458;-86
2023/01/26 12:35:01;;;;;;;4.40;4.13;;;-0.40;97.30;;;;;;5076672;28;20918;-85
2023/01/26 12:37:45;;;;;;;10.80;5.77;;;-0.30;97.30;;;;;;5076667;28;20183;-85
2023/01/26 12:40:39;;;;;;;3.70;2.90;;;-0.30;97.30;;;;;;5075803;28;20288;-85
2023/01/26 12:43:33;;;;;;;9.50;6.00;;;-0.40;97.30;;;;;;5075855;28;20459;-89
2023/01/26 12:46:01;;;;;;;7.13;3.27;;;-0.40;97.30;;;;;;5075741;28;20416;-86
2023/01/26 12:48:42;;;;;;;4.20;2.30;;;-0.50;97.30;;;;;;5076518;28;20544;-86
2023/01/26 12:51:20;;;;;;;3.07;2.87;;;-0.50;97.30;;;;;;5095183;28;20918;-85
2023/01/26 12:54:04;;;;;;;15.23;3.90;;;-0.60;97.30;;;;;;5097105;28;20425;-85
2023/01/26 12:56:35;;;;;;;7.83;4.70;;;-0.60;97.30;;;;;;5097207;28;20408;-85
2023/01/26 12:59:12;;;;;;;3.30;3.10;;;-0.60;97.30;;;;;;5105007;28;20415;-85
2023/01/26 13:01:41;;;;;;;4.40;4.10;;;-0.60;97.30;;;;;;5133029;28;20422;-88
2023/01/26 13:04:13;;;;;;;5.80;4.13;;;-0.60;97.30;;;;;;5114591;28;21154;-87
2023/01/26 13:06:39;;;;;;;5.07;3.30;;;-0.60;97.30;;;;;;5114602;28;20439;-90
2023/01/26 13:09:23;;;;;;;4.37;4.10;;;-0.60;97.30;;;;;;5113484;28;20426;-90
2023/01/26 13:11:54;;;;;;;3.20;3.00;;;-0.60;97.30;;;;;;5115418;28;20461;-90
2023/01/26 13:14:42;;;;;;;23.47;3.13;;;-0.70;97.30;;;;;;5132920;28;20433;-88
2023/01/26 13:17:14;;;;;;;5.80;2.03;;;-0.70;97.30;;;;;;5113171;28;20414;-87
2023/01/26 13:19:58;;;;;;;3.03;2.63;;;-0.70;97.30;;;;;;5101072;28;20474;-89
2023/01/26 13:22:23;;;;;;;2.57;2.37;;;-0.70;97.30;;;;;;5087061;28;20468;-91
2023/01/26 13:24:55;;;;;;;14.50;4.20;;;-0.60;97.30;;;;;;5092948;28;20432;-86
2023/01/26 13:27:37;;;;;;;3.50;3.30;;;-0.60;97.30;;;;;;5081442;28;20218;-85
2023/01/26 13:30:25;;;;;;;5.03;2.83;;;-0.70;97.30;;;;;;5073038;28;21056;-85
2023/01/26 13:33:11;;;;;;;10.67;4.57;;;-0.60;97.30;;;;;;5073350;28;20548;-86
2023/01/26 13:35:37;;;;;;;5.80;4.27;;;-0.60;97.30;;;;;;5073365;28;20450;-86
2023/01/26 13:38:31;;;;;;;3.00;2.80;;;-0.60;97.30;;;;;;5073364;28;20511;-87
2023/01/26 13:40:57;;;;;;;2.37;2.10;;;-0.60;97.30;;;;;;5058479;28;20518;-85
2023/01/26 13:43:43;;;;;;;4.70;2.97;;;-0.60;97.30;;;;;;5073607;28;20416;-87
2023/01/26 13:46:25;;;;;;;12.30;6.27;;;-0.60;97.30;;;;;;5073181;28;20412;-85
2023/01/26 13:48:53;;;;;;;8.00;6.90;;;-0.70;97.30;;;;;;5091392;28;20432;-89